Time;durP1;ratioP1;P1;durP2;ratioP2;P2;SDS_P1;SDS_P2;PMS_P1;PMS_P2;Temp;Humidity;BMP_temperature;BMP_pressure;BME280_temperature;BME280_humidity;BME280_pressure;Samples;Min_cycle;Max_cycle;Signal;HPM_P1;HPM_P2
2021/08/04 00:00:43;;;;;;;9.95;5.35;;;14.00;99.80;;;;;;6219518;22;20083;-84
2021/08/04 00:03:10;;;;;;;7.32;5.82;;;14.00;99.90;;;;;;6219193;22;20073;-85
2021/08/04 00:05:36;;;;;;;8.38;6.50;;;14.00;99.90;;;;;;6219427;22;20012;-84
2021/08/04 00:08:02;;;;;;;8.55;5.85;;;14.00;99.90;;;;;;6219304;22;20463;-84
2021/08/04 00:10:28;;;;;;;7.60;5.80;;;13.90;99.90;;;;;;6218785;22;20026;-84
2021/08/04 00:12:54;;;;;;;7.57;5.47;;;13.90;99.90;;;;;;6219753;22;20335;-84
2021/08/04 00:15:20;;;;;;;9.50;6.20;;;13.90;99.90;;;;;;6244686;22;20043;-84
2021/08/04 00:17:46;;;;;;;8.48;5.68;;;13.90;99.90;;;;;;6244646;22;20008;-84
2021/08/04 00:20:14;;;;;;;13.48;5.85;;;13.90;99.90;;;;;;6218868;22;20452;-84
2021/08/04 00:22:40;;;;;;;7.60;6.13;;;13.90;99.90;;;;;;6219422;22;20290;-84
2021/08/04 00:25:07;;;;;;;8.95;5.78;;;13.80;99.90;;;;;;6219224;22;20058;-85
2021/08/04 00:27:33;;;;;;;7.50;5.65;;;13.80;99.90;;;;;;6219754;22;20041;-85
2021/08/04 00:29:59;;;;;;;10.45;6.35;;;13.80;99.90;;;;;;6219290;22;20039;-84
2021/08/04 00:32:25;;;;;;;11.45;6.90;;;13.80;99.90;;;;;;6219173;22;20018;-84
2021/08/04 00:34:51;;;;;;;10.32;6.40;;;13.70;99.90;;;;;;6244672;22;20091;-85
2021/08/04 00:37:17;;;;;;;11.65;6.50;;;13.70;99.90;;;;;;6219345;22;20460;-85
2021/08/04 00:39:43;;;;;;;9.05;5.95;;;13.70;99.90;;;;;;6219272;22;20035;-84
2021/08/04 00:42:10;;;;;;;7.70;6.10;;;13.80;99.90;;;;;;6219341;22;20354;-84
2021/08/04 00:44:36;;;;;;;8.65;6.15;;;13.70;99.90;;;;;;6218898;22;20015;-84
2021/08/04 00:47:04;;;;;;;8.70;5.97;;;13.70;99.90;;;;;;6244210;22;20625;-85
2021/08/04 00:49:30;;;;;;;7.32;6.05;;;13.70;99.90;;;;;;6219419;22;20015;-85
2021/08/04 00:51:56;;;;;;;8.48;6.00;;;13.70;99.90;;;;;;6218739;22;20019;-84
2021/08/04 00:54:22;;;;;;;7.30;6.30;;;13.70;99.90;;;;;;6194272;22;20336;-84
2021/08/04 00:56:48;;;;;;;8.00;6.00;;;13.70;99.90;;;;;;6245180;22;20014;-84
2021/08/04 00:59:15;;;;;;;11.93;6.60;;;13.70;99.90;;;;;;6218964;22;20340;-85
2021/08/04 01:01:49;;;;;;;12.60;6.65;;;13.70;99.90;;;;;;6271158;22;20039;-85
2021/08/04 01:04:27;;;;;;;9.90;5.57;;;13.70;99.90;;;;;;6246173;22;20008;-85
2021/08/04 01:07:08;;;;;;;8.18;5.85;;;13.70;99.90;;;;;;6254511;22;20018;-84
2021/08/04 01:09:52;;;;;;;9.27;5.97;;;13.70;99.90;;;;;;6254262;22;20019;-85
2021/08/04 01:12:22;;;;;;;7.25;5.70;;;13.70;99.90;;;;;;6281126;22;20016;-85
2021/08/04 01:14:54;;;;;;;8.40;5.63;;;13.70;99.90;;;;;;6244221;22;20414;-85
2021/08/04 01:17:20;;;;;;;15.63;6.43;;;13.70;99.90;;;;;;6254743;22;20011;-84
2021/08/04 01:19:49;;;;;;;8.13;6.18;;;13.70;99.90;;;;;;6244478;22;20568;-85
2021/08/04 01:22:34;;;;;;;9.43;5.43;;;13.70;99.90;;;;;;6244528;22;20012;-84
2021/08/04 01:25:06;;;;;;;10.43;6.22;;;13.70;99.90;;;;;;6218883;22;20012;-85
2021/08/04 01:27:33;;;;;;;8.88;6.32;;;13.70;99.90;;;;;;6273195;22;20020;-84
2021/08/04 01:30:00;;;;;;;7.57;5.45;;;13.70;99.90;;;;;;6245837;22;20078;-85
2021/08/04 01:32:28;;;;;;;6.88;6.03;;;13.80;99.90;;;;;;6272812;22;20034;-84
2021/08/04 01:34:55;;;;;;;11.73;5.70;;;13.70;99.90;;;;;;6245953;22;20007;-84
2021/08/04 01:37:26;;;;;;;11.43;6.28;;;13.70;99.90;;;;;;6246459;22;20345;-84
2021/08/04 01:39:54;;;;;;;11.02;6.30;;;13.70;99.90;;;;;;6221151;22;20020;-85
2021/08/04 01:42:22;;;;;;;10.98;6.00;;;13.80;99.90;;;;;;6220622;22;20011;-85
2021/08/04 01:44:48;;;;;;;7.80;6.38;;;13.70;99.90;;;;;;6245910;22;20008;-84
2021/08/04 01:47:15;;;;;;;7.72;5.60;;;13.70;99.90;;;;;;6220669;22;20018;-83
2021/08/04 01:49:43;;;;;;;6.88;5.72;;;13.80;99.90;;;;;;6220595;22;20080;-84
2021/08/04 01:52:09;;;;;;;8.93;6.03;;;13.70;99.90;;;;;;6221060;22;20008;-85
2021/08/04 01:54:39;;;;;;;9.45;5.95;;;13.70;99.90;;;;;;6245846;22;20016;-84
2021/08/04 01:57:06;;;;;;;9.70;5.72;;;13.70;99.90;;;;;;6221383;22;20387;-83
2021/08/04 01:59:32;;;;;;;10.75;6.00;;;13.70;99.90;;;;;;6221170;22;20035;-83
2021/08/04 02:02:21;;;;;;;8.75;5.75;;;13.70;99.90;;;;;;6220622;22;20510;-84
2021/08/04 02:04:48;;;;;;;7.32;5.93;;;13.70;99.90;;;;;;6245707;22;20433;-84
2021/08/04 02:07:32;;;;;;;7.45;5.70;;;13.70;99.90;;;;;;6220910;22;20018;-83
2021/08/04 02:10:02;;;;;;;7.07;5.72;;;13.70;99.90;;;;;;6255667;22;20019;-84
2021/08/04 02:12:30;;;;;;;8.30;5.90;;;13.70;99.90;;;;;;6245917;22;20008;-84
2021/08/04 02:15:06;;;;;;;9.35;6.05;;;13.70;99.90;;;;;;6276000;22;20023;-84
2021/08/04 02:17:45;;;;;;;12.52;5.85;;;13.70;99.90;;;;;;6241327;22;20444;-84
2021/08/04 02:20:37;;;;;;;12.57;6.68;;;13.80;99.90;;;;;;6220478;22;20034;-85
2021/08/04 02:23:11;;;;;;;8.32;6.20;;;13.80;99.90;;;;;;6272431;22;20074;-84
2021/08/04 02:25:42;;;;;;;8.90;6.22;;;13.70;99.90;;;;;;6255965;22;20007;-84
2021/08/04 02:28:13;;;;;;;9.90;6.78;;;13.80;99.90;;;;;;6244771;22;20098;-84
2021/08/04 02:30:40;;;;;;;7.45;5.50;;;13.70;99.90;;;;;;6254497;22;20058;-85
2021/08/04 02:33:07;;;;;;;9.40;6.13;;;13.70;99.90;;;;;;6195416;22;20015;-84
2021/08/04 02:35:33;;;;;;;8.15;6.00;;;13.70;99.90;;;;;;6245729;22;20076;-84
2021/08/04 02:38:00;;;;;;;6.75;5.53;;;13.70;99.90;;;;;;6219826;22;20027;-84
2021/08/04 02:40:26;;;;;;;6.07;5.45;;;13.70;99.90;;;;;;6244991;22;20019;-84
2021/08/04 02:42:54;;;;;;;8.00;5.72;;;13.70;99.90;;;;;;6245137;22;20028;-84
2021/08/04 02:45:21;;;;;;;6.40;5.68;;;13.70;99.90;;;;;;6245385;22;20007;-84
2021/08/04 02:47:47;;;;;;;9.07;6.00;;;13.70;99.90;;;;;;6194841;22;20012;-84
2021/08/04 02:50:14;;;;;;;11.85;6.40;;;13.70;99.90;;;;;;6195023;22;20031;-85
2021/08/04 02:52:41;;;;;;;7.55;5.85;;;13.70;99.90;;;;;;6245428;22;20042;-84
2021/08/04 02:55:08;;;;;;;7.90;6.30;;;13.70;99.90;;;;;;6220173;22;20011;-84
2021/08/04 02:57:34;;;;;;;8.07;6.05;;;13.60;99.90;;;;;;6245271;22;20012;-84
2021/08/04 03:00:00;;;;;;;7.65;6.30;;;13.70;99.90;;;;;;6244946;22;20092;-84
2021/08/04 03:02:26;;;;;;;13.32;6.40;;;13.60;99.90;;;;;;6220549;22;20396;-85
2021/08/04 03:04:52;;;;;;;9.30;6.55;;;13.60;99.90;;;;;;6220000;22;20093;-85
2021/08/04 03:07:18;;;;;;;10.02;6.82;;;13.60;99.90;;;;;;6245154;22;20033;-84
2021/08/04 03:09:44;;;;;;;7.93;6.45;;;13.60;99.90;;;;;;6219947;22;20520;-84
2021/08/04 03:12:10;;;;;;;10.85;6.78;;;13.60;99.90;;;;;;6219895;22;20012;-84
2021/08/04 03:14:36;;;;;;;10.50;7.40;;;13.60;99.90;;;;;;6245117;22;20032;-84
2021/08/04 03:17:02;;;;;;;10.07;6.78;;;13.60;99.90;;;;;;6245210;22;20040;-83
2021/08/04 03:19:27;;;;;;;8.90;6.75;;;13.50;99.90;;;;;;6219387;22;20042;-84
2021/08/04 03:21:53;;;;;;;12.43;7.45;;;13.50;99.90;;;;;;6219926;22;20019;-84
2021/08/04 03:24:20;;;;;;;12.20;7.13;;;13.50;99.90;;;;;;6245054;22;20119;-84
2021/08/04 03:26:46;;;;;;;8.00;6.35;;;13.50;99.90;;;;;;6244867;22;20092;-83
2021/08/04 03:29:12;;;;;;;9.48;6.25;;;13.40;99.90;;;;;;6219491;22;20028;-84
2021/08/04 03:31:38;;;;;;;8.82;6.60;;;13.40;99.90;;;;;;6194284;22;20401;-84
2021/08/04 03:34:03;;;;;;;10.75;6.93;;;13.40;99.90;;;;;;6219615;22;20015;-84
2021/08/04 03:36:29;;;;;;;10.82;6.70;;;13.40;99.90;;;;;;6220061;22;20079;-84
2021/08/04 03:38:56;;;;;;;9.13;6.63;;;13.40;99.90;;;;;;6219617;22;20016;-83
2021/08/04 03:41:21;;;;;;;10.77;6.70;;;13.40;99.90;;;;;;6194795;22;20086;-85
2021/08/04 03:43:48;;;;;;;15.05;6.97;;;13.40;99.90;;;;;;6244713;22;20102;-84
2021/08/04 03:46:14;;;;;;;9.82;6.88;;;13.40;99.90;;;;;;6219758;22;20039;-84
2021/08/04 03:48:39;;;;;;;9.43;6.63;;;13.40;99.90;;;;;;6219213;22;20035;-84
2021/08/04 03:51:06;;;;;;;10.32;7.22;;;13.40;99.90;;;;;;6245241;22;20065;-84
2021/08/04 03:53:31;;;;;;;9.10;6.95;;;13.40;99.90;;;;;;6244707;22;20014;-84
2021/08/04 03:56:00;;;;;;;13.60;7.65;;;13.40;99.90;;;;;;6220814;22;20031;-84
2021/08/04 03:58:26;;;;;;;10.30;6.72;;;13.40;99.90;;;;;;6244722;22;20054;-84
2021/08/04 04:00:52;;;;;;;9.63;6.80;;;13.40;99.90;;;;;;6220302;22;20475;-84
2021/08/04 04:03:18;;;;;;;11.45;7.15;;;13.40;99.90;;;;;;6219199;22;20344;-85
2021/08/04 04:05:44;;;;;;;10.90;7.70;;;13.40;99.90;;;;;;6219958;22;20066;-84
2021/08/04 04:08:10;;;;;;;9.50;6.85;;;13.40;99.90;;;;;;6219299;22;20008;-83
2021/08/04 04:10:36;;;;;;;12.10;7.40;;;13.50;99.90;;;;;;6219784;22;20019;-85
2021/08/04 04:13:02;;;;;;;12.32;8.00;;;13.40;99.90;;;;;;6245111;22;20011;-83
2021/08/04 04:15:28;;;;;;;9.85;6.85;;;13.40;99.90;;;;;;6244910;22;20066;-84
2021/08/04 04:17:54;;;;;;;9.05;6.63;;;13.40;99.90;;;;;;6271536;22;20008;-84
2021/08/04 04:20:20;;;;;;;9.48;6.60;;;13.40;99.90;;;;;;6219499;22;20687;-84
2021/08/04 04:22:46;;;;;;;9.02;6.53;;;13.40;99.90;;;;;;6244578;22;20007;-83
2021/08/04 04:25:13;;;;;;;10.80;7.10;;;13.40;99.90;;;;;;6194658;22;20440;-84
2021/08/04 04:27:43;;;;;;;10.25;6.57;;;13.40;99.90;;;;;;6219993;22;20007;-84
2021/08/04 04:30:10;;;;;;;9.95;6.47;;;13.40;99.90;;;;;;6218896;22;20523;-84
2021/08/04 04:32:36;;;;;;;12.63;6.85;;;13.40;99.90;;;;;;6219971;22;20019;-84
2021/08/04 04:35:06;;;;;;;9.80;6.40;;;13.40;99.90;;;;;;6271755;22;20012;-84
2021/08/04 04:37:32;;;;;;;11.45;6.60;;;13.40;99.90;;;;;;6244459;22;20011;-84
2021/08/04 04:39:58;;;;;;;10.80;6.25;;;13.50;99.90;;;;;;6243995;22;20467;-84
2021/08/04 04:42:24;;;;;;;8.25;6.13;;;13.50;99.90;;;;;;6244328;22;20012;-84
2021/08/04 04:44:50;;;;;;;11.10;6.55;;;13.50;99.90;;;;;;6244219;22;20360;-85
2021/08/04 04:47:16;;;;;;;10.95;5.88;;;13.50;99.90;;;;;;6244943;22;20087;-85
2021/08/04 04:49:42;;;;;;;11.30;5.38;;;13.50;99.90;;;;;;6244324;22;20082;-84
2021/08/04 04:52:08;;;;;;;8.02;5.30;;;13.50;99.90;;;;;;6219276;22;20095;-85
2021/08/04 04:54:34;;;;;;;8.63;5.97;;;13.50;99.90;;;;;;6244245;22;20016;-84
2021/08/04 04:57:00;;;;;;;8.23;5.55;;;13.50;99.90;;;;;;6219384;22;20015;-85
2021/08/04 04:59:26;;;;;;;9.10;5.80;;;13.50;99.90;;;;;;6257078;22;20003;-83
2021/08/04 05:01:52;;;;;;;7.68;5.68;;;13.60;99.90;;;;;;6276656;22;20019;-83
2021/08/04 05:04:18;;;;;;;7.28;5.38;;;13.60;99.90;;;;;;6229944;22;20050;-85
2021/08/04 05:06:43;;;;;;;8.10;5.25;;;13.60;99.90;;;;;;6246947;22;20007;-85
2021/08/04 05:09:09;;;;;;;8.85;5.45;;;13.60;99.90;;;;;;6221205;22;20445;-85
2021/08/04 05:11:35;;;;;;;8.82;6.45;;;13.60;99.90;;;;;;6221730;22;20008;-83
2021/08/04 05:14:04;;;;;;;6.95;5.43;;;13.60;99.90;;;;;;6222561;22;20008;-84
2021/08/04 05:16:30;;;;;;;8.27;5.70;;;13.60;99.90;;;;;;6221649;22;20038;-85
2021/08/04 05:18:56;;;;;;;9.07;5.82;;;13.60;99.90;;;;;;6221367;22;20019;-85
2021/08/04 05:21:22;;;;;;;9.68;6.40;;;13.70;99.90;;;;;;6221687;22;20358;-83
2021/08/04 05:23:48;;;;;;;9.10;5.78;;;13.70;99.90;;;;;;6221297;22;20007;-83
2021/08/04 05:26:14;;;;;;;8.07;5.70;;;13.70;99.90;;;;;;6221835;22;20008;-84
2021/08/04 05:28:40;;;;;;;8.32;5.55;;;13.80;99.90;;;;;;6246793;22;20008;-84
2021/08/04 05:31:05;;;;;;;9.10;5.55;;;13.80;99.90;;;;;;6221170;22;20015;-84
2021/08/04 05:33:31;;;;;;;6.30;5.15;;;13.80;99.90;;;;;;6195671;22;20018;-84
2021/08/04 05:35:58;;;;;;;7.15;5.38;;;13.80;99.90;;;;;;6221668;22;20016;-84
2021/08/04 05:38:23;;;;;;;6.10;4.65;;;13.80;99.90;;;;;;6221360;22;20012;-84
2021/08/04 05:40:49;;;;;;;6.35;4.93;;;13.90;99.90;;;;;;6273294;22;20015;-84
2021/08/04 05:43:15;;;;;;;5.82;4.80;;;13.90;99.90;;;;;;6221579;22;20043;-84
2021/08/04 05:45:41;;;;;;;8.48;5.10;;;13.90;99.90;;;;;;6246257;22;20012;-83
2021/08/04 05:48:07;;;;;;;6.45;5.43;;;14.00;99.90;;;;;;6246459;22;20344;-84
2021/08/04 05:50:35;;;;;;;8.05;4.95;;;14.00;99.90;;;;;;6221431;22;20019;-83
2021/08/04 05:53:02;;;;;;;6.90;5.03;;;14.10;99.90;;;;;;6221221;22;20512;-83
2021/08/04 05:55:28;;;;;;;8.15;5.30;;;14.10;99.90;;;;;;6222252;22;20018;-83
2021/08/04 05:57:56;;;;;;;7.35;5.00;;;14.20;99.90;;;;;;6222319;22;20039;-84
2021/08/04 06:00:22;;;;;;;7.10;5.13;;;14.20;99.90;;;;;;6274287;22;20043;-84
2021/08/04 06:02:47;;;;;;;5.65;4.80;;;14.20;99.90;;;;;;6221485;22;20046;-84
2021/08/04 06:05:13;;;;;;;9.98;5.28;;;14.30;99.90;;;;;;6221336;22;20016;-85
2021/08/04 06:07:40;;;;;;;7.68;4.88;;;14.30;99.90;;;;;;6222163;22;20042;-84
2021/08/04 06:10:06;;;;;;;6.82;4.90;;;14.30;99.90;;;;;;6220329;22;20026;-84
2021/08/04 06:12:32;;;;;;;9.88;5.05;;;14.40;99.90;;;;;;6221938;22;20011;-84
2021/08/04 06:14:58;;;;;;;5.32;4.57;;;14.40;99.90;;;;;;6221505;22;20023;-84
2021/08/04 06:17:24;;;;;;;10.70;5.50;;;14.40;99.90;;;;;;6274240;22;20033;-84
2021/08/04 06:19:50;;;;;;;7.88;5.00;;;14.50;99.90;;;;;;6263387;22;20424;-84
2021/08/04 06:22:16;;;;;;;5.47;4.30;;;14.50;99.90;;;;;;6250207;22;20035;-84
2021/08/04 06:24:44;;;;;;;9.05;4.57;;;14.60;99.90;;;;;;6251149;22;20018;-85
2021/08/04 06:27:10;;;;;;;7.25;4.85;;;14.60;99.90;;;;;;6198625;22;20012;-84
2021/08/04 06:29:36;;;;;;;7.72;4.70;;;14.70;99.90;;;;;;6247932;22;20020;-85
2021/08/04 06:32:09;;;;;;;5.47;4.53;;;14.70;99.90;;;;;;6249693;22;20019;-84
2021/08/04 06:34:35;;;;;;;7.60;4.90;;;14.80;99.90;;;;;;6227268;22;20026;-84
2021/08/04 06:37:01;;;;;;;6.35;4.68;;;14.80;99.90;;;;;;6222293;22;20011;-84
2021/08/04 06:39:28;;;;;;;6.03;4.10;;;14.80;99.90;;;;;;6244674;22;20344;-84
2021/08/04 06:41:53;;;;;;;4.60;4.03;;;14.90;99.90;;;;;;6221647;22;20007;-83
2021/08/04 06:44:19;;;;;;;8.63;4.30;;;15.00;99.90;;;;;;6246276;22;20011;-85
2021/08/04 06:46:46;;;;;;;5.93;4.35;;;15.00;99.90;;;;;;6246370;22;20015;-83
2021/08/04 06:49:12;;;;;;;6.47;4.15;;;15.10;99.90;;;;;;6196035;22;20457;-84
2021/08/04 06:51:37;;;;;;;3.90;3.50;;;15.20;99.90;;;;;;6220795;22;20516;-84
2021/08/04 06:54:04;;;;;;;5.05;3.70;;;15.30;99.90;;;;;;6220687;22;20464;-84
2021/08/04 06:56:30;;;;;;;6.18;3.33;;;15.30;99.90;;;;;;6221337;22;20086;-84
2021/08/04 06:58:56;;;;;;;6.82;3.42;;;15.40;99.90;;;;;;6220123;22;20427;-84
2021/08/04 07:01:22;;;;;;;4.82;3.70;;;15.50;99.90;;;;;;6247616;22;20150;-84
2021/08/04 07:03:48;;;;;;;5.10;2.88;;;15.60;99.60;;;;;;6221481;22;20032;-84
2021/08/04 07:06:13;;;;;;;5.10;3.38;;;15.70;99.40;;;;;;6221201;22;20077;-85
2021/08/04 07:08:40;;;;;;;6.47;3.08;;;15.80;99.30;;;;;;6195382;22;20039;-85
2021/08/04 07:11:07;;;;;;;3.97;2.47;;;16.00;98.90;;;;;;6246614;22;20102;-84
2021/08/04 07:13:33;;;;;;;3.72;2.40;;;16.10;98.60;;;;;;6195465;22;20086;-85
2021/08/04 07:15:59;;;;;;;4.45;2.40;;;16.20;98.10;;;;;;6221943;22;20034;-84
2021/08/04 07:18:25;;;;;;;2.15;1.83;;;16.30;97.70;;;;;;6245355;22;20223;-84
2021/08/04 07:20:51;;;;;;;2.50;2.25;;;16.40;97.50;;;;;;6220940;22;20094;-84
2021/08/04 07:23:17;;;;;;;5.28;2.35;;;16.50;96.80;;;;;;6245233;22;20019;-83
2021/08/04 07:25:43;;;;;;;3.33;1.70;;;16.70;96.50;;;;;;6220929;22;20386;-83
2021/08/04 07:28:10;;;;;;;2.33;2.03;;;16.70;96.40;;;;;;6245719;22;20459;-84
2021/08/04 07:30:36;;;;;;;10.02;2.60;;;16.80;96.10;;;;;;6245422;22;20015;-84
2021/08/04 07:33:02;;;;;;;4.93;1.90;;;16.90;95.60;;;;;;6195221;22;20333;-85
2021/08/04 07:35:28;;;;;;;2.42;1.50;;;17.00;95.60;;;;;;6220886;22;20008;-84
2021/08/04 07:37:54;;;;;;;3.72;1.50;;;17.10;95.10;;;;;;6220136;22;20365;-84
2021/08/04 07:40:20;;;;;;;3.63;1.20;;;17.20;94.70;;;;;;6246180;22;20023;-85
2021/08/04 07:42:48;;;;;;;2.75;1.40;;;17.20;94.30;;;;;;6220231;22;20356;-84
2021/08/04 07:45:14;;;;;;;3.30;2.00;;;17.20;94.00;;;;;;6244978;22;20008;-84
2021/08/04 07:47:41;;;;;;;3.55;1.67;;;17.30;94.20;;;;;;6245368;22;20452;-85
2021/08/04 07:50:07;;;;;;;2.72;1.80;;;17.30;94.10;;;;;;6246028;22;20069;-84
2021/08/04 07:52:33;;;;;;;2.88;1.80;;;17.30;94.00;;;;;;6220060;22;20015;-84
2021/08/04 07:54:59;;;;;;;2.53;1.92;;;17.30;93.90;;;;;;6195380;22;20012;-85
2021/08/04 07:57:25;;;;;;;3.15;2.10;;;17.40;93.90;;;;;;6219590;22;20019;-85
2021/08/04 07:59:51;;;;;;;2.72;1.50;;;17.40;93.90;;;;;;6220388;22;20015;-84
2021/08/04 08:02:17;;;;;;;1.70;1.60;;;17.40;93.80;;;;;;6195501;22;20011;-84
2021/08/04 08:04:43;;;;;;;3.65;1.80;;;17.40;93.80;;;;;;6220324;22;20069;-85
2021/08/04 08:07:09;;;;;;;2.53;1.90;;;17.40;93.70;;;;;;6220722;22;20016;-85
2021/08/04 08:09:34;;;;;;;3.10;1.48;;;17.40;93.60;;;;;;6195010;22;20038;-83
2021/08/04 08:12:00;;;;;;;2.65;1.80;;;17.40;93.40;;;;;;6271904;22;20007;-84
2021/08/04 08:14:28;;;;;;;2.70;1.45;;;17.40;93.10;;;;;;6219866;22;20068;-84
2021/08/04 08:16:54;;;;;;;3.03;1.88;;;17.40;93.30;;;;;;6220490;22;20018;-83
2021/08/04 08:19:21;;;;;;;1.48;1.38;;;17.40;93.20;;;;;;6220155;22;20094;-84
2021/08/04 08:21:46;;;;;;;3.83;1.55;;;17.50;93.10;;;;;;6220854;22;20039;-83
2021/08/04 08:24:13;;;;;;;1.77;1.20;;;17.50;92.40;;;;;;6228729;22;20016;-84
2021/08/04 08:26:39;;;;;;;3.17;1.70;;;17.60;92.70;;;;;;6224208;22;20024;-86
2021/08/04 08:29:06;;;;;;;5.45;1.60;;;17.60;92.30;;;;;;6221616;22;20460;-83
2021/08/04 08:31:33;;;;;;;2.08;1.27;;;17.70;92.80;;;;;;6244386;22;20016;-86
2021/08/04 08:34:02;;;;;;;3.60;1.60;;;17.70;92.50;;;;;;6219771;22;20008;-84
2021/08/04 08:36:33;;;;;;;4.55;1.70;;;17.80;92.70;;;;;;6217546;22;20042;-85
2021/08/04 08:39:00;;;;;;;2.83;1.52;;;17.80;92.30;;;;;;6244361;22;20034;-84
2021/08/04 08:41:27;;;;;;;4.65;1.70;;;17.90;92.10;;;;;;6244910;22;20015;-85
2021/08/04 08:43:53;;;;;;;4.15;1.90;;;17.90;91.80;;;;;;6244519;22;20384;-85
2021/08/04 08:46:20;;;;;;;3.53;2.00;;;17.90;91.70;;;;;;6219098;22;20058;-84
2021/08/04 08:48:47;;;;;;;1.92;1.42;;;17.90;91.70;;;;;;6244399;22;20012;-85
2021/08/04 08:51:20;;;;;;;3.38;1.63;;;17.70;91.60;;;;;;6271477;22;20074;-86
2021/08/04 08:53:46;;;;;;;2.85;1.67;;;17.70;92.00;;;;;;6271368;22;20027;-85
2021/08/04 08:56:17;;;;;;;3.72;1.75;;;17.70;92.40;;;;;;6219519;22;20008;-85
2021/08/04 08:58:43;;;;;;;3.75;1.70;;;17.70;92.40;;;;;;6244034;22;20019;-84
2021/08/04 09:01:09;;;;;;;5.63;1.73;;;17.70;92.20;;;;;;6219565;22;20011;-85
2021/08/04 09:03:35;;;;;;;3.67;1.65;;;17.70;92.40;;;;;;6218921;22;20012;-85
2021/08/04 09:06:03;;;;;;;2.60;1.70;;;17.70;92.60;;;;;;6220291;22;20016;-85
2021/08/04 09:08:31;;;;;;;4.18;1.77;;;17.80;92.40;;;;;;6220145;22;20342;-85
2021/08/04 09:11:10;;;;;;;1.95;1.23;;;17.80;92.40;;;;;;6271958;22;20453;-86
2021/08/04 09:13:36;;;;;;;2.45;1.50;;;17.80;91.10;;;;;;6276774;22;20012;-85
2021/08/04 09:16:10;;;;;;;1.83;1.40;;;17.80;91.90;;;;;;6219395;22;20019;-84
2021/08/04 09:18:48;;;;;;;2.25;1.48;;;17.90;92.20;;;;;;6220068;22;20069;-84
2021/08/04 09:21:16;;;;;;;5.82;1.48;;;17.90;91.80;;;;;;6219268;22;20011;-85
2021/08/04 09:23:45;;;;;;;3.20;1.30;;;17.90;92.10;;;;;;6244724;22;20008;-85
2021/08/04 09:26:16;;;;;;;1.70;1.30;;;18.00;91.40;;;;;;6244591;22;20012;-86
2021/08/04 09:28:53;;;;;;;2.72;1.50;;;18.00;91.60;;;;;;6244387;22;20007;-86
2021/08/04 09:31:20;;;;;;;1.98;1.58;;;18.10;91.60;;;;;;6271874;22;20090;-84
2021/08/04 09:33:47;;;;;;;1.70;1.60;;;18.20;91.60;;;;;;6271407;22;20011;-84
2021/08/04 09:36:27;;;;;;;2.95;1.25;;;18.30;91.30;;;;;;6220792;22;20095;-85
2021/08/04 09:39:04;;;;;;;1.35;1.15;;;18.40;90.10;;;;;;6255894;22;20046;-86
2021/08/04 09:41:30;;;;;;;2.83;1.45;;;18.40;90.60;;;;;;6244408;22;20034;-85
2021/08/04 09:44:07;;;;;;;3.35;1.25;;;18.50;90.80;;;;;;6245034;22;20030;-86
2021/08/04 09:46:33;;;;;;;1.58;1.30;;;18.50;88.70;;;;;;6244949;22;20016;-87
2021/08/04 09:49:28;;;;;;;4.38;1.33;;;18.60;90.30;;;;;;6222321;22;20019;-84
2021/08/04 09:52:24;;;;;;;3.88;1.40;;;18.70;89.80;;;;;;6211230;22;20444;-85
2021/08/04 09:54:50;;;;;;;2.13;1.33;;;18.70;89.10;;;;;;6228143;22;20011;-85
2021/08/04 09:57:16;;;;;;;1.70;0.95;;;18.70;88.80;;;;;;6247316;22;20471;-85
2021/08/04 10:00:06;;;;;;;3.35;1.48;;;18.70;89.30;;;;;;6275553;22;20019;-83
2021/08/04 10:02:32;;;;;;;1.55;1.30;;;18.70;86.90;;;;;;6258011;22;20008;-86
2021/08/04 10:05:18;;;;;;;2.20;1.40;;;18.70;87.90;;;;;;6246407;22;20019;-85
2021/08/04 10:08:10;;;;;;;4.97;1.65;;;18.80;89.50;;;;;;6273473;22;20219;-85
2021/08/04 10:10:41;;;;;;;4.75;2.97;;;18.80;87.70;;;;;;6220909;22;20023;-85
2021/08/04 10:13:09;;;;;;;1.88;1.13;;;18.80;88.60;;;;;;6252719;22;20015;-85
2021/08/04 10:15:41;;;;;;;2.40;1.40;;;18.90;89.20;;;;;;6246105;22;20008;-85
2021/08/04 10:18:25;;;;;;;1.98;1.50;;;18.90;87.90;;;;;;6248978;22;20015;-84
2021/08/04 10:20:57;;;;;;;1.67;1.40;;;19.00;86.40;;;;;;6302515;22;20015;-84
2021/08/04 10:23:26;;;;;;;;;;;19.00;87.00;;;;;;6266502;22;20291;-84
2021/08/04 10:25:54;;;;;;;3.53;1.40;;;19.00;85.90;;;;;;6246022;22;19911;-85
2021/08/04 10:28:20;;;;;;;3.25;1.50;;;19.10;88.40;;;;;;6246697;22;20087;-85
2021/08/04 10:30:46;;;;;;;1.90;1.45;;;19.10;88.30;;;;;;6220926;22;20019;-85
2021/08/04 10:33:13;;;;;;;2.15;1.40;;;19.20;88.20;;;;;;6195359;22;20023;-84
2021/08/04 10:35:50;;;;;;;3.90;1.52;;;19.30;88.80;;;;;;6220585;22;20094;-84
2021/08/04 10:38:20;;;;;;;4.95;2.03;;;19.40;88.50;;;;;;6284886;22;20088;-84
2021/08/04 10:41:16;;;;;;;2.88;1.88;;;19.50;87.00;;;;;;6246748;22;20441;-85
2021/08/04 10:43:48;;;;;;;2.10;1.42;;;19.60;82.60;;;;;;6249936;22;20008;-84
2021/08/04 10:46:29;;;;;;;2.97;1.90;;;19.50;85.00;;;;;;6272637;22;20020;-84
2021/08/04 10:49:04;;;;;;;2.67;1.48;;;19.50;84.10;;;;;;6244920;22;20011;-84
2021/08/04 10:52:03;;;;;;;2.75;1.38;;;19.50;86.00;;;;;;6244866;22;20471;-84
2021/08/04 10:54:30;;;;;;;4.22;1.90;;;19.40;86.90;;;;;;6246651;22;20008;-85
2021/08/04 10:56:56;;;;;;;1.95;1.50;;;19.50;84.70;;;;;;6220641;22;20428;-85
2021/08/04 10:59:31;;;;;;;3.63;1.77;;;19.60;86.80;;;;;;6245652;22;20015;-84
2021/08/04 11:02:03;;;;;;;1.83;1.55;;;19.70;85.30;;;;;;6284221;22;20035;-84
2021/08/04 11:04:28;;;;;;;2.20;1.70;;;19.80;84.60;;;;;;6274297;22;20008;-85
2021/08/04 11:07:13;;;;;;;3.92;1.60;;;19.80;84.20;;;;;;6256373;22;20011;-83
2021/08/04 11:09:42;;;;;;;2.17;1.50;;;19.90;84.00;;;;;;6219609;22;20019;-83
2021/08/04 11:12:10;;;;;;;3.53;1.98;;;19.90;82.50;;;;;;6245521;22;20082;-85
2021/08/04 11:14:49;;;;;;;2.30;1.75;;;20.00;83.50;;;;;;6219931;22;20008;-84
2021/08/04 11:17:17;;;;;;;3.63;1.50;;;20.00;84.50;;;;;;6246525;22;20087;-85
2021/08/04 11:19:59;;;;;;;3.60;1.70;;;20.10;80.20;;;;;;6222457;22;20484;-83
2021/08/04 11:22:35;;;;;;;2.58;1.58;;;20.10;80.70;;;;;;6246516;22;20016;-83
2021/08/04 11:25:12;;;;;;;3.90;1.50;;;20.00;80.90;;;;;;6256271;22;20008;-82
2021/08/04 11:27:44;;;;;;;3.60;1.98;;;20.00;81.50;;;;;;6256081;22;20461;-84
2021/08/04 11:30:31;;;;;;;7.90;1.70;;;20.00;81.10;;;;;;6246328;22;20049;-82
2021/08/04 11:33:24;;;;;;;2.40;1.70;;;20.00;79.40;;;;;;6245796;22;20018;-83
2021/08/04 11:36:01;;;;;;;4.75;1.70;;;20.00;80.50;;;;;;6260048;22;20035;-84
2021/08/04 11:38:49;;;;;;;5.85;1.63;;;20.00;79.30;;;;;;6276039;22;20107;-81
2021/08/04 11:41:28;;;;;;;2.78;1.70;;;20.00;79.90;;;;;;6257823;22;20065;-82
2021/08/04 11:44:00;;;;;;;3.30;1.50;;;20.00;80.70;;;;;;6250864;22;20490;-82
2021/08/04 11:46:30;;;;;;;3.03;1.50;;;20.00;80.40;;;;;;6247081;22;20375;-82
2021/08/04 11:48:56;;;;;;;4.25;1.20;;;20.00;81.20;;;;;;6249069;22;20020;-82
2021/08/04 11:51:44;;;;;;;3.70;2.15;;;20.10;79.70;;;;;;6273450;22;20024;-83
2021/08/04 11:54:12;;;;;;;4.00;1.80;;;20.10;79.20;;;;;;6276049;22;20039;-82
2021/08/04 11:56:46;;;;;;;2.78;1.80;;;20.10;80.00;;;;;;6247616;22;20007;-83
2021/08/04 11:59:12;;;;;;;3.05;1.67;;;20.10;79.50;;;;;;6250045;22;20012;-84
2021/08/04 12:01:38;;;;;;;3.92;1.60;;;20.20;78.30;;;;;;6220721;22;20327;-83
2021/08/04 12:04:10;;;;;;;3.25;1.45;;;20.30;78.30;;;;;;6195062;22;20015;-84
2021/08/04 12:06:38;;;;;;;1.58;1.27;;;20.30;78.50;;;;;;6284448;22;20019;-84
2021/08/04 12:09:20;;;;;;;2.20;1.30;;;20.50;78.20;;;;;;6245180;22;20015;-84
2021/08/04 12:11:47;;;;;;;1.98;1.60;;;20.50;79.00;;;;;;6244672;22;20047;-82
2021/08/04 12:14:15;;;;;;;2.92;1.70;;;20.60;80.10;;;;;;6247175;22;20440;-84
2021/08/04 12:16:54;;;;;;;2.35;1.60;;;20.60;79.00;;;;;;6275883;22;20019;-81
2021/08/04 12:19:38;;;;;;;3.70;1.45;;;20.60;77.40;;;;;;6244488;22;20018;-83
2021/08/04 12:22:15;;;;;;;5.47;1.52;;;20.60;78.80;;;;;;6244830;22;20086;-83
2021/08/04 12:24:53;;;;;;;1.88;1.30;;;20.70;78.00;;;;;;6244431;22;20007;-84
2021/08/04 12:27:34;;;;;;;2.72;1.42;;;20.70;77.80;;;;;;6281980;22;20031;-82
2021/08/04 12:30:17;;;;;;;3.85;1.60;;;20.70;77.60;;;;;;6244804;22;20487;-82
2021/08/04 12:33:03;;;;;;;4.15;1.58;;;20.70;76.00;;;;;;6272213;22;20019;-84
2021/08/04 12:35:42;;;;;;;3.28;1.30;;;20.70;74.50;;;;;;6246136;22;20016;-84
2021/08/04 12:38:14;;;;;;;3.88;1.70;;;20.70;75.90;;;;;;6254989;22;20030;-84
2021/08/04 12:40:40;;;;;;;3.57;1.93;;;20.70;74.70;;;;;;6244370;22;20369;-83
2021/08/04 12:43:11;;;;;;;2.25;1.35;;;20.70;74.10;;;;;;6271450;22;20015;-84
2021/08/04 12:45:51;;;;;;;2.60;1.58;;;20.60;75.30;;;;;;6244894;22;20015;-84
2021/08/04 12:48:42;;;;;;;2.83;1.60;;;20.60;76.80;;;;;;6245436;22;20022;-84
2021/08/04 12:51:13;;;;;;;3.45;1.52;;;20.60;78.10;;;;;;6259569;22;20020;-84
2021/08/04 12:53:41;;;;;;;2.77;1.50;;;20.60;76.90;;;;;;6249614;22;20012;-84
2021/08/04 12:56:13;;;;;;;3.75;1.73;;;20.60;77.20;;;;;;6245003;22;20095;-84